createdAt,value
2022-08-03T00:00:26.440Z,100082.22
2022-08-03T00:02:53.898Z,100075.44
2022-08-03T00:05:21.015Z,100090.44
2022-08-03T00:07:48.438Z,100086.38
2022-08-03T00:10:16.977Z,100075.75
2022-08-03T00:12:43.972Z,100095.34
2022-08-03T00:15:15.222Z,100081.81
2022-08-03T00:17:53.570Z,100088.28
2022-08-03T00:20:24.223Z,100082.06
2022-08-03T00:22:51.579Z,100086.62
2022-08-03T00:25:18.460Z,100078.22
2022-08-03T00:27:45.578Z,100068.72
2022-08-03T00:30:16.862Z,100082.22
2022-08-03T00:32:45.402Z,100082.72
2022-08-03T00:35:29.984Z,100074.31
2022-08-03T00:38:00.020Z,100076.75
2022-08-03T00:40:26.844Z,100071.34
2022-08-03T00:42:59.988Z,100057.69
2022-08-03T00:45:29.385Z,100065.94
2022-08-03T00:47:57.395Z,100075.94
2022-08-03T00:50:25.738Z,100069.88
2022-08-03T00:52:54.367Z,100066.34
2022-08-03T00:55:21.855Z,100071.84
2022-08-03T00:57:49.356Z,100080.44
2022-08-03T01:00:22.736Z,100088.06
2022-08-03T01:02:50.064Z,100084.31
2022-08-03T01:05:17.963Z,100064.97
2022-08-03T01:08:22.578Z,100079.84
2022-08-03T01:11:09.777Z,100081.50
2022-08-03T01:14:19.225Z,100076.59
2022-08-03T01:17:07.687Z,100086.34
2022-08-03T01:19:54.230Z,100081.09
2022-08-03T01:22:51.629Z,100086.84
2022-08-03T01:25:36.688Z,100083.47
2022-08-03T01:28:23.523Z,100077.75
2022-08-03T01:30:56.516Z,100096.50
2022-08-03T01:33:34.158Z,100095.94
2022-08-03T01:36:06.448Z,100099.69
2022-08-03T01:38:42.144Z,100099.94
2022-08-03T01:41:13.385Z,100092.88
2022-08-03T01:44:26.828Z,100095.56
2022-08-03T01:46:31.614Z,100100.72
2022-08-03T01:49:01.286Z,100099.34
2022-08-03T01:51:57.941Z,100091.75
2022-08-03T01:54:28.409Z,100101.41
2022-08-03T01:56:57.624Z,100090.50
2022-08-03T01:59:26.511Z,100084.28
2022-08-03T02:02:31.777Z,100097.22
2022-08-03T02:04:44.633Z,100076.25
2022-08-03T02:07:13.313Z,100085.25
2022-08-03T02:09:41.738Z,100083.59
2022-08-03T02:12:11.060Z,100065.09
2022-08-03T02:14:40.815Z,100080.59
2022-08-03T02:17:09.618Z,100084.09
2022-08-03T02:19:37.709Z,100074.87
2022-08-03T02:22:05.710Z,100086.78
2022-08-03T02:24:32.824Z,100090.34
2022-08-03T02:27:00.722Z,100086.00
2022-08-03T02:29:39.384Z,100094.66
2022-08-03T02:32:14.483Z,100094.91
2022-08-03T02:34:44.678Z,100090.34
2022-08-03T02:37:13.169Z,100088.00
2022-08-03T02:39:41.045Z,100091.63
2022-08-03T02:42:10.408Z,100099.72
2022-08-03T02:44:47.614Z,100095.38
2022-08-03T02:47:15.894Z,100095.84
2022-08-03T02:49:51.583Z,100105.84
2022-08-03T02:52:23.401Z,100099.59
2022-08-03T02:54:55.053Z,100098.78
2022-08-03T02:57:23.353Z,100100.91
2022-08-03T02:59:51.907Z,100093.56
2022-08-03T03:02:20.016Z,100097.97
2022-08-03T03:05:55.790Z,100100.69
2022-08-03T03:07:51.318Z,100093.38
2022-08-03T03:10:24.659Z,100100.19
2022-08-03T03:12:57.361Z,100099.16
2022-08-03T03:15:26.715Z,100090.44
2022-08-03T03:17:55.025Z,100106.62
2022-08-03T03:20:29.381Z,100091.28
2022-08-03T03:23:01.585Z,100094.69
2022-08-03T03:25:31.648Z,100104.31
2022-08-03T03:28:03.764Z,100106.78
2022-08-03T03:30:33.563Z,100093.78
2022-08-03T03:33:00.721Z,100100.66
2022-08-03T03:35:28.413Z,100104.72
2022-08-03T03:37:55.386Z,100103.44
2022-08-03T03:40:22.759Z,100104.22
2022-08-03T03:42:50.444Z,100112.94
2022-08-03T03:45:17.975Z,100108.91
2022-08-03T03:47:45.134Z,100120.31
2022-08-03T03:50:12.606Z,100116.53
2022-08-03T03:52:39.311Z,100123.56
2022-08-03T03:55:06.890Z,100139.28
2022-08-03T03:57:34.999Z,100124.87
2022-08-03T04:00:01.738Z,100133.56
2022-08-03T04:02:31.196Z,100141.25
2022-08-03T04:05:16.756Z,100126.88
2022-08-03T04:08:14.842Z,100121.47
2022-08-03T04:11:01.317Z,100130.44
2022-08-03T04:13:40.058Z,100131.28
2022-08-03T04:16:10.651Z,100141.19
2022-08-03T04:18:40.390Z,100144.00
2022-08-03T04:21:11.532Z,100132.59
2022-08-03T04:23:42.877Z,100144.38
2022-08-03T04:26:12.000Z,100150.94
2022-08-03T04:28:41.813Z,100144.22
2022-08-03T04:31:08.696Z,100145.84
2022-08-03T04:33:38.692Z,100144.53
2022-08-03T04:36:08.836Z,100152.09
2022-08-03T04:38:54.446Z,100149.81
2022-08-03T04:41:24.791Z,100135.13
2022-08-03T04:43:54.966Z,100144.47
2022-08-03T04:46:26.175Z,100147.62
2022-08-03T04:48:53.716Z,100150.53
2022-08-03T04:51:20.538Z,100157.28
2022-08-03T04:53:47.340Z,100151.19
2022-08-03T04:56:14.304Z,100153.72
2022-08-03T04:58:40.954Z,100155.91
2022-08-03T05:01:07.653Z,100150.22
2022-08-03T05:03:34.599Z,100141.25
2022-08-03T05:06:09.773Z,100147.81
2022-08-03T05:08:46.357Z,100148.69
2022-08-03T05:11:15.867Z,100148.00
2022-08-03T05:13:43.518Z,100157.69
2022-08-03T05:16:10.504Z,100154.28
2022-08-03T05:18:37.347Z,100164.12
2022-08-03T05:21:05.068Z,100157.94
2022-08-03T05:23:31.817Z,100160.94
2022-08-03T05:25:58.467Z,100158.25
2022-08-03T05:28:25.477Z,100155.34
2022-08-03T05:30:52.223Z,100151.34
2022-08-03T05:33:19.185Z,100159.16
2022-08-03T05:35:57.579Z,100159.53
2022-08-03T05:38:33.988Z,100171.16
2022-08-03T05:41:21.755Z,100176.00
2022-08-03T05:43:54.145Z,100173.53
2022-08-03T05:46:22.845Z,100172.69
2022-08-03T05:48:49.802Z,100167.00
2022-08-03T05:51:16.531Z,100167.00
2022-08-03T05:53:44.111Z,100164.91
2022-08-03T05:56:13.800Z,100161.69
2022-08-03T05:58:44.479Z,100169.22
2022-08-03T06:01:11.661Z,100173.78
2022-08-03T06:03:38.771Z,100169.19
2022-08-03T06:06:05.580Z,100180.38
2022-08-03T06:08:32.511Z,100175.25
2022-08-03T06:10:59.650Z,100177.97
2022-08-03T06:13:26.382Z,100181.84
2022-08-03T06:15:53.152Z,100186.13
2022-08-03T06:18:20.292Z,100178.00
2022-08-03T06:20:47.311Z,100170.56
2022-08-03T06:23:17.858Z,100180.72
2022-08-03T06:25:45.872Z,100183.22
2022-08-03T06:28:35.165Z,100185.44
2022-08-03T06:31:02.059Z,100182.19
2022-08-03T06:34:31.385Z,100181.12
2022-08-03T06:36:16.410Z,100187.19
2022-08-03T06:38:43.234Z,100174.59
2022-08-03T06:41:09.956Z,100192.34
2022-08-03T06:43:37.989Z,100182.87
2022-08-03T06:46:24.519Z,100179.13
2022-08-03T06:48:53.208Z,100176.50
2022-08-03T06:51:19.996Z,100179.50
2022-08-03T06:53:46.792Z,100188.19
2022-08-03T06:56:13.822Z,100180.63
2022-08-03T06:58:40.614Z,100176.25
2022-08-03T07:01:07.480Z,100177.59
2022-08-03T07:03:34.518Z,100184.41
2022-08-03T07:06:02.300Z,100185.22
2022-08-03T07:08:33.758Z,100185.28
2022-08-03T07:11:01.931Z,100186.06
2022-08-03T07:13:28.652Z,100185.47
2022-08-03T07:15:56.771Z,100179.22
2022-08-03T07:18:29.266Z,100184.94
2022-08-03T07:20:56.915Z,100188.19
2022-08-03T07:23:24.017Z,100182.75
2022-08-03T07:25:50.972Z,100190.41
2022-08-03T07:28:18.212Z,100186.13
2022-08-03T07:30:45.280Z,100187.50
2022-08-03T07:33:11.970Z,100192.97
2022-08-03T07:35:39.304Z,100195.16
2022-08-03T07:38:06.346Z,100196.75
2022-08-03T07:40:33.064Z,100201.44
2022-08-03T07:43:00.205Z,100200.88
2022-08-03T07:45:27.230Z,100197.59
2022-08-03T07:47:54.588Z,100200.84
2022-08-03T07:50:22.546Z,100204.94
2022-08-03T07:52:50.627Z,100210.37
2022-08-03T07:55:19.506Z,100219.87
2022-08-03T07:57:46.277Z,100224.25
2022-08-03T08:00:17.475Z,100207.91
2022-08-03T08:02:45.270Z,100205.97
2022-08-03T08:05:12.727Z,100222.31
2022-08-03T08:07:39.797Z,100223.13
2022-08-03T08:10:10.198Z,100227.50
2022-08-03T08:12:39.110Z,100232.94
2022-08-03T08:15:09.055Z,100239.75
2022-08-03T08:17:46.433Z,100236.22
2022-08-03T08:20:23.901Z,100237.81
2022-08-03T08:22:58.148Z,100235.38
2022-08-03T08:25:26.319Z,100238.91
2022-08-03T08:28:22.324Z,100245.44
2022-08-03T08:30:40.796Z,100239.19
2022-08-03T08:33:08.640Z,100243.06
2022-08-03T08:35:37.302Z,100252.31
2022-08-03T08:38:05.839Z,100225.69
2022-08-03T08:40:33.135Z,100250.44
2022-08-03T08:43:00.046Z,100242.31
2022-08-03T08:45:27.783Z,100241.25
2022-08-03T08:48:01.701Z,100239.63
2022-08-03T08:50:30.713Z,100248.31
2022-08-03T08:53:01.595Z,100243.97
2022-08-03T08:55:29.708Z,100256.75
2022-08-03T08:58:19.731Z,100245.88
2022-08-03T09:00:48.548Z,100243.44
2022-08-03T09:03:22.687Z,100242.88
2022-08-03T09:06:00.833Z,100241.25
2022-08-03T09:08:28.971Z,100233.87
2022-08-03T09:10:55.691Z,100240.44
2022-08-03T09:13:22.837Z,100233.63
2022-08-03T09:18:33.447Z,100239.63
2022-08-03T09:21:30.119Z,100249.94
2022-08-03T09:24:02.692Z,100240.16
2022-08-03T09:26:31.538Z,100231.19
2022-08-03T09:29:14.485Z,100242.31
2022-08-03T09:31:46.032Z,100252.12
2022-08-03T09:36:47.098Z,100264.91
2022-08-03T09:39:17.566Z,100263.28
2022-08-03T09:41:46.989Z,100271.19
2022-08-03T09:44:24.233Z,100250.97
2022-08-03T09:46:57.133Z,100258.00
2022-08-03T09:49:25.249Z,100263.09
2022-08-03T09:52:38.450Z,100275.28
2022-08-03T09:54:41.830Z,100270.84
2022-08-03T09:57:08.828Z,100271.53
2022-08-03T09:59:35.797Z,100266.84
2022-08-03T10:02:20.614Z,100268.69
2022-08-03T10:04:50.065Z,100271.41
2022-08-03T10:07:16.961Z,100269.00
2022-08-03T10:10:30.549Z,100265.78
2022-08-03T10:12:46.108Z,100271.28
2022-08-03T10:16:21.663Z,100274.37
2022-08-03T10:18:00.007Z,100273.06
2022-08-03T10:20:27.329Z,100262.00
2022-08-03T10:22:55.055Z,100257.13
2022-08-03T10:25:22.469Z,100275.38
2022-08-03T10:28:04.568Z,100258.56
2022-08-03T10:30:32.877Z,100264.56
2022-08-03T10:33:05.246Z,100258.91
2022-08-03T10:35:56.362Z,100265.97
2022-08-03T10:38:46.051Z,100246.12
2022-08-03T10:41:14.066Z,100262.19
2022-08-03T10:44:05.439Z,100252.12
2022-08-03T10:46:34.660Z,100247.25
2022-08-03T10:49:03.074Z,100248.31
2022-08-03T10:51:32.059Z,100233.34
2022-08-03T10:54:01.821Z,100240.69
2022-08-03T10:56:51.834Z,100234.44
2022-08-03T10:59:27.539Z,100240.97
2022-08-03T11:01:59.881Z,100226.03
2022-08-03T11:04:29.990Z,100232.28
2022-08-03T11:07:16.887Z,100238.53
2022-08-03T11:09:55.739Z,100239.59
2022-08-03T11:12:30.695Z,100230.09
2022-08-03T11:15:06.182Z,100223.81
2022-08-03T11:17:46.349Z,100212.91
2022-08-03T11:20:51.125Z,100223.81
2022-08-03T11:24:02.549Z,100224.31
2022-08-03T11:26:18.869Z,100220.25
2022-08-03T11:28:47.174Z,100225.12
2022-08-03T11:31:48.243Z,100216.97
2022-08-03T11:34:12.287Z,100221.28
2022-08-03T11:37:17.156Z,100218.03
2022-08-03T11:39:46.965Z,100222.06
2022-08-03T11:42:23.394Z,100211.78
2022-08-03T11:44:51.006Z,100220.69
2022-08-03T11:47:20.107Z,100205.94
2022-08-03T11:49:48.549Z,100227.22
2022-08-03T11:52:17.411Z,100218.00
2022-08-03T11:54:44.554Z,100209.53
2022-08-03T11:57:11.484Z,100195.72
2022-08-03T11:59:38.788Z,100203.03
2022-08-03T12:02:07.297Z,100214.47
2022-08-03T12:04:58.439Z,100218.78
2022-08-03T12:08:02.549Z,100222.63
2022-08-03T12:10:15.675Z,100201.72
2022-08-03T12:12:46.294Z,100215.09
2022-08-03T12:15:13.677Z,100214.28
2022-08-03T12:17:41.829Z,100212.12
2022-08-03T12:20:10.558Z,100208.06
2022-08-03T12:22:40.832Z,100226.03
2022-08-03T12:25:09.014Z,100217.31
2022-08-03T12:27:36.337Z,100216.22
2022-08-03T12:30:03.898Z,100220.03
2022-08-03T12:32:31.691Z,100221.38
2022-08-03T12:35:04.447Z,100214.03
2022-08-03T12:37:34.195Z,100220.03
2022-08-03T12:40:09.751Z,100214.59
2022-08-03T12:42:39.664Z,100220.03
2022-08-03T12:45:27.038Z,100219.22
2022-08-03T12:47:59.095Z,100213.50
2022-08-03T12:50:28.010Z,100209.69
2022-08-03T12:52:56.142Z,100210.19
2022-08-03T12:55:23.885Z,100199.84
2022-08-03T12:57:50.684Z,100209.66
2022-08-03T13:00:28.660Z,100199.31
2022-08-03T13:03:42.449Z,100201.78
2022-08-03T13:06:01.663Z,100202.56
2022-08-03T13:08:28.370Z,100181.31
2022-08-03T13:10:55.210Z,100194.34
2022-08-03T13:13:40.967Z,100188.38
2022-08-03T13:16:07.641Z,100199.19
2022-08-03T13:18:34.634Z,100193.72
2022-08-03T13:21:02.269Z,100169.47
2022-08-03T13:23:29.200Z,100181.41
2022-08-03T13:25:56.359Z,100202.38
2022-08-03T13:28:23.458Z,100211.62
2022-08-03T13:30:50.287Z,100204.06
2022-08-03T13:33:17.712Z,100234.06
2022-08-03T13:35:44.463Z,100252.38
2022-08-03T13:38:11.403Z,100246.69
2022-08-03T13:40:41.619Z,100236.87
2022-08-03T13:43:08.766Z,100242.41
2022-08-03T13:45:35.634Z,100245.19
2022-08-03T13:48:02.697Z,100257.03
2022-08-03T13:50:30.185Z,100262.09
2022-08-03T13:52:57.932Z,100256.34
2022-08-03T13:55:24.942Z,100282.34
2022-08-03T13:58:02.560Z,100261.16
2022-08-03T14:00:34.305Z,100284.06
2022-08-03T14:03:09.091Z,100277.19
2022-08-03T14:05:40.924Z,100280.59
2022-08-03T14:08:08.828Z,100275.69
2022-08-03T14:10:38.573Z,100261.28
2022-08-03T14:13:06.125Z,100255.53
2022-08-03T14:15:37.702Z,100260.75
2022-08-03T14:18:06.489Z,100269.44
2022-08-03T14:20:38.567Z,100271.66
2022-08-03T14:23:14.377Z,100275.41
2022-08-03T14:25:43.654Z,100278.19
2022-08-03T14:28:18.575Z,100284.53
2022-08-03T14:30:46.171Z,100283.38
2022-08-03T14:33:12.865Z,100293.75
2022-08-03T14:35:39.681Z,100284.28
2022-08-03T14:38:06.936Z,100286.50
2022-08-03T14:40:33.757Z,100289.22
2022-08-03T14:43:00.432Z,100293.31
2022-08-03T14:45:27.653Z,100289.00
2022-08-03T14:50:33.886Z,100276.19
2022-08-03T14:50:46.805Z,100272.41
2022-08-03T14:53:17.705Z,100281.72
2022-08-03T14:55:49.959Z,100278.75
2022-08-03T14:58:22.996Z,100285.31
2022-08-03T15:00:51.497Z,100268.72
2022-08-03T15:03:26.023Z,100283.44
2022-08-03T15:05:55.440Z,100289.16
2022-08-03T15:08:23.514Z,100289.44
2022-08-03T15:10:50.830Z,100293.81
2022-08-03T15:13:19.753Z,100290.28
2022-08-03T15:15:46.863Z,100293.81
2022-08-03T15:18:13.587Z,100286.25
2022-08-03T15:20:45.379Z,100281.88
2022-08-03T15:23:15.376Z,100280.84
2022-08-03T15:26:06.493Z,100294.44
2022-08-03T15:28:34.018Z,100292.84
2022-08-03T15:31:01.779Z,100287.16
2022-08-03T15:33:29.281Z,100283.91
2022-08-03T15:35:56.624Z,100280.59
2022-08-03T15:38:25.820Z,100287.41
2022-08-03T15:40:57.125Z,100302.63
2022-08-03T15:43:24.812Z,100303.16
2022-08-03T15:46:26.499Z,100296.88
2022-08-03T15:48:39.913Z,100306.13
2022-08-03T15:51:07.459Z,100299.31
2022-08-03T15:53:34.900Z,100303.38
2022-08-03T15:56:08.032Z,100281.31
2022-08-03T15:59:09.239Z,100294.06
2022-08-03T16:01:26.535Z,100294.06
2022-08-03T16:03:53.621Z,100285.66
2022-08-03T16:06:35.385Z,100294.03
2022-08-03T16:09:23.425Z,100284.78
2022-08-03T16:11:53.309Z,100271.72
2022-08-03T16:14:35.620Z,100274.97
2022-08-03T16:17:07.159Z,100281.72
2022-08-03T16:19:35.503Z,100279.25
2022-08-03T16:22:03.176Z,100279.78
2022-08-03T16:24:32.097Z,100273.22
2022-08-03T16:27:00.718Z,100280.56
2022-08-03T16:29:28.545Z,100260.44
2022-08-03T16:31:55.269Z,100261.47
2022-08-03T16:34:22.256Z,100269.94
2022-08-03T16:36:49.059Z,100272.91
2022-08-03T16:39:15.829Z,100268.56
2022-08-03T16:41:55.004Z,100284.28
2022-08-03T16:44:29.557Z,100273.69
2022-08-03T16:46:57.395Z,100284.53
2022-08-03T16:49:53.690Z,100286.38
2022-08-03T16:52:12.884Z,100294.50
2022-08-03T16:54:40.160Z,100302.09
2022-08-03T16:57:07.498Z,100311.03
2022-08-03T16:59:36.704Z,100314.00
2022-08-03T17:02:09.946Z,100312.31
2022-08-03T17:04:47.512Z,100327.00
2022-08-03T17:07:15.902Z,100344.09
2022-08-03T17:09:44.928Z,100337.03
2022-08-03T17:12:13.347Z,100348.13
2022-08-03T17:14:40.640Z,100353.00
2022-08-03T17:17:16.853Z,100353.25
2022-08-03T17:19:47.499Z,100362.44
2022-08-03T17:22:18.721Z,100358.63
2022-08-03T17:24:56.042Z,100354.53
2022-08-03T17:28:49.651Z,100361.59
2022-08-03T17:30:19.008Z,100352.63
2022-08-03T17:32:56.924Z,100360.19
2022-08-03T17:35:36.514Z,100365.38
2022-08-03T17:38:10.346Z,100356.09
2022-08-03T17:40:48.208Z,100363.16
2022-08-03T17:44:12.933Z,100365.31
2022-08-03T17:46:07.360Z,100363.66
2022-08-03T17:48:41.245Z,100367.19
2022-08-03T17:51:23.265Z,100364.47
2022-08-03T17:54:00.688Z,100355.47
2022-08-03T17:56:46.241Z,100366.37
2022-08-03T17:59:50.860Z,100362.03
2022-08-03T18:03:10.077Z,100369.91
2022-08-03T18:06:10.616Z,100365.06
2022-08-03T18:08:33.220Z,100375.66
2022-08-03T18:11:09.665Z,100369.66
2022-08-03T18:13:58.283Z,100380.50
2022-08-03T18:16:34.379Z,100368.03
2022-08-03T18:19:09.722Z,100371.00
2022-08-03T18:22:03.569Z,100372.87
2022-08-03T18:24:30.019Z,100372.87
2022-08-03T18:26:58.952Z,100360.16
2022-08-03T18:29:25.985Z,100357.88
2022-08-03T18:32:04.059Z,100363.34
2022-08-03T18:34:34.578Z,100362.22
2022-08-03T18:37:07.331Z,100354.34
2022-08-03T18:39:49.360Z,100358.19
2022-08-03T18:42:26.322Z,100364.19
2022-08-03T18:44:56.256Z,100360.38
2022-08-03T18:47:26.414Z,100351.69
2022-08-03T18:50:02.038Z,100341.34
2022-08-03T18:52:34.776Z,100342.41
2022-08-03T18:55:33.353Z,100353.34
2022-08-03T18:58:09.842Z,100358.75
2022-08-03T19:01:04.106Z,100349.69
2022-08-03T19:03:43.315Z,100355.72
2022-08-03T19:06:22.915Z,100357.62
2022-08-03T19:08:54.252Z,100357.38
2022-08-03T19:12:14.304Z,100359.25
2022-08-03T19:14:34.603Z,100354.66
2022-08-03T19:17:10.033Z,100351.56
2022-08-03T19:19:44.152Z,100359.94
2022-08-03T19:22:16.053Z,100357.75
2022-08-03T19:24:45.238Z,100373.25
2022-08-03T19:27:14.194Z,100361.34
2022-08-03T19:30:00.490Z,100359.94
2022-08-03T19:32:31.197Z,100365.87
2022-08-03T19:35:00.871Z,100352.53
2022-08-03T19:37:37.999Z,100366.88
2022-08-03T19:40:10.201Z,100368.19
2022-08-03T19:42:42.892Z,100359.75
2022-08-03T19:45:14.416Z,100360.81
2022-08-03T19:48:10.079Z,100357.56
2022-08-03T19:50:44.405Z,100367.59
2022-08-03T19:53:12.797Z,100358.87
2022-08-03T19:55:49.043Z,100361.84
2022-08-03T19:58:28.493Z,100366.13
2022-08-03T20:00:56.123Z,100352.50
2022-08-03T20:03:27.709Z,100381.56
2022-08-03T20:06:12.218Z,100378.28
2022-08-03T20:08:44.513Z,100374.44
2022-08-03T20:11:11.653Z,100370.06
2022-08-03T20:13:38.954Z,100373.03
2022-08-03T20:16:06.834Z,100360.72
2022-08-03T20:18:39.309Z,100379.78
2022-08-03T20:21:15.161Z,100375.13
2022-08-03T20:24:00.010Z,100386.00
2022-08-03T20:26:31.230Z,100385.19
2022-08-03T20:29:10.155Z,100382.75
2022-08-03T20:31:37.669Z,100390.63
2022-08-03T20:34:06.327Z,100374.53
2022-08-03T20:36:33.343Z,100378.06
2022-08-03T20:39:00.499Z,100379.19
2022-08-03T20:41:27.321Z,100381.25
2022-08-03T20:43:54.370Z,100385.69
2022-08-03T20:46:29.489Z,100386.75
2022-08-03T20:49:01.259Z,100380.78
2022-08-03T20:51:50.316Z,100378.06
2022-08-03T20:54:31.326Z,100387.25
2022-08-03T20:57:03.670Z,100381.03
2022-08-03T20:59:47.154Z,100385.59
2022-08-03T21:02:30.557Z,100385.00
2022-08-03T21:05:08.616Z,100394.69
2022-08-03T21:08:05.463Z,100400.13
2022-08-03T21:10:28.999Z,100392.25
2022-08-03T21:13:16.218Z,100390.13
2022-08-03T21:16:07.015Z,100401.41
2022-08-03T21:18:50.502Z,100384.22
2022-08-03T21:21:22.157Z,100403.81
2022-08-03T21:23:54.542Z,100400.78
2022-08-03T21:26:24.317Z,100400.94
2022-08-03T21:28:53.348Z,100400.44
2022-08-03T21:31:24.735Z,100398.72
2022-08-03T21:33:55.503Z,100399.63
2022-08-03T21:36:22.364Z,100406.34
2022-08-03T21:38:56.622Z,100399.31
2022-08-03T21:41:30.886Z,100388.66
2022-08-03T21:43:58.332Z,100395.78
2022-08-03T21:46:27.501Z,100387.34
2022-08-03T21:49:52.167Z,100385.69
2022-08-03T21:51:48.770Z,100391.59
2022-08-03T21:54:15.847Z,100387.34
2022-08-03T21:56:43.318Z,100387.84
2022-08-03T21:59:17.689Z,100376.34
2022-08-03T22:01:48.826Z,100391.34
2022-08-03T22:04:50.086Z,100398.31
2022-08-03T22:07:08.413Z,100393.41
2022-08-03T22:09:36.732Z,100384.41
2022-08-03T22:12:04.277Z,100396.34
2022-08-03T22:14:33.870Z,100393.66
2022-08-03T22:17:03.343Z,100385.69
2022-08-03T22:19:33.068Z,100387.91
2022-08-03T22:22:01.600Z,100391.44
2022-08-03T22:24:32.032Z,100390.06
2022-08-03T22:27:20.281Z,100388.66
2022-08-03T22:29:49.979Z,100377.16
2022-08-03T22:32:16.887Z,100393.75
2022-08-03T22:34:46.502Z,100387.97
2022-08-03T22:37:16.540Z,100385.69
2022-08-03T22:39:44.490Z,100399.87
2022-08-03T22:42:11.742Z,100403.66
2022-08-03T22:44:39.825Z,100402.00
2022-08-03T22:47:09.413Z,100389.53
2022-08-03T22:49:36.940Z,100381.66
2022-08-03T22:52:04.734Z,100381.91
2022-08-03T22:54:32.104Z,100365.34
2022-08-03T22:56:58.840Z,100371.91
2022-08-03T22:59:39.112Z,100357.47
2022-08-03T23:02:18.320Z,100367.31
2022-08-03T23:04:57.520Z,100377.34
2022-08-03T23:07:35.911Z,100360.69
2022-08-03T23:10:07.332Z,100375.69
2022-08-03T23:12:39.628Z,100363.69
2022-08-03T23:15:09.662Z,100373.97
2022-08-03T23:17:58.284Z,100375.25
2022-08-03T23:20:26.989Z,100377.47
2022-08-03T23:22:57.719Z,100366.47
2022-08-03T23:25:25.235Z,100383.88
2022-08-03T23:28:05.432Z,100383.88
2022-08-03T23:30:34.782Z,100376.72
2022-08-03T23:33:03.051Z,100375.31
2022-08-03T23:36:29.553Z,100381.09
2022-08-03T23:38:37.249Z,100386.50
2022-08-03T23:41:04.877Z,100382.69
2022-08-03T23:43:50.777Z,100390.00
2022-08-03T23:46:23.929Z,100377.47
2022-08-03T23:48:51.205Z,100394.00
2022-08-03T23:51:51.151Z,100392.38
2022-08-03T23:54:38.907Z,100392.38
2022-08-03T23:57:12.859Z,100397.78
2022-08-03T23:59:49.015Z,100378.19
